createdAt,value
2018-10-05T00:00:24.728Z,39.60
2018-10-05T00:01:30.275Z,37.20
2018-10-05T00:02:35.770Z,34.80
2018-10-05T00:03:41.265Z,39.57
2018-10-05T00:04:46.742Z,34.03
2018-10-05T00:05:52.586Z,46.37
2018-10-05T00:06:58.108Z,44.47
2018-10-05T00:10:12.394Z,36.60
2018-10-05T00:11:17.902Z,37.67
2018-10-05T00:12:23.483Z,37.37
2018-10-05T00:13:29.009Z,42.63
2018-10-05T00:14:34.455Z,35.83
2018-10-05T00:15:40.193Z,32.00
2018-10-05T00:16:45.641Z,40.70
2018-10-05T00:17:51.306Z,39.63
2018-10-05T00:18:56.701Z,41.13
2018-10-05T00:20:02.140Z,34.80
2018-10-05T00:21:07.891Z,39.43
2018-10-05T00:22:13.385Z,36.57
2018-10-05T00:23:18.841Z,34.00
2018-10-05T00:24:24.382Z,39.23
2018-10-05T00:25:29.889Z,38.43
2018-10-05T00:26:35.321Z,32.33
2018-10-05T00:27:41.197Z,36.87
2018-10-05T00:28:46.677Z,35.20
2018-10-05T00:29:52.201Z,43.63
2018-10-05T00:30:57.633Z,44.70
2018-10-05T00:32:03.096Z,37.07
2018-10-05T00:33:08.714Z,43.03
2018-10-05T00:34:14.152Z,36.20
2018-10-05T00:35:19.688Z,35.10
2018-10-05T00:36:25.146Z,41.57
2018-10-05T00:37:30.684Z,34.07
2018-10-05T00:38:36.243Z,38.80
2018-10-05T00:39:42.243Z,38.57
2018-10-05T00:40:47.741Z,42.77
2018-10-05T00:41:53.422Z,39.90
2018-10-05T00:42:58.914Z,39.73
2018-10-05T00:44:04.485Z,35.33
2018-10-05T00:45:10.061Z,50.87
2018-10-05T00:46:15.620Z,40.90
2018-10-05T00:47:21.225Z,40.27
2018-10-05T00:48:26.719Z,38.67
2018-10-05T00:49:32.271Z,36.80
2018-10-05T00:50:37.881Z,43.13
2018-10-05T00:51:43.584Z,38.43
2018-10-05T00:52:49.146Z,38.97
2018-10-05T00:53:54.588Z,44.17
2018-10-05T00:55:00.115Z,37.20
2018-10-05T00:56:05.607Z,37.90
2018-10-05T00:57:11.049Z,42.83
2018-10-05T00:58:16.557Z,38.33
2018-10-05T00:59:22.191Z,39.50
2018-10-05T01:00:27.739Z,42.20
2018-10-05T01:01:33.344Z,38.07
2018-10-05T01:02:38.869Z,34.13
2018-10-05T01:03:44.406Z,40.83
2018-10-05T01:04:49.908Z,39.93
2018-10-05T01:05:55.429Z,38.30
2018-10-05T01:07:00.866Z,37.73
2018-10-05T01:08:06.345Z,33.50
2018-10-05T01:09:11.818Z,39.80
2018-10-05T01:10:17.316Z,38.27
2018-10-05T01:11:22.948Z,38.07
2018-10-05T01:12:28.390Z,37.10
2018-10-05T01:13:33.879Z,39.60
2018-10-05T01:14:39.329Z,38.97
2018-10-05T01:15:44.850Z,36.93
2018-10-05T01:16:50.377Z,38.43
2018-10-05T01:17:55.992Z,37.70
2018-10-05T01:19:01.471Z,37.00
2018-10-05T01:20:06.989Z,31.90
2018-10-05T01:21:12.504Z,37.23
2018-10-05T01:22:18.019Z,37.00
2018-10-05T01:23:23.525Z,36.03
2018-10-05T01:24:29.036Z,35.23
2018-10-05T01:25:34.524Z,40.77
2018-10-05T01:26:40.026Z,39.03
2018-10-05T01:27:45.494Z,36.90
2018-10-05T01:28:50.995Z,35.90
2018-10-05T01:29:56.707Z,39.97
2018-10-05T01:31:02.303Z,36.27
2018-10-05T01:32:08.014Z,37.37
2018-10-05T01:33:13.468Z,36.87
2018-10-05T01:34:19.018Z,34.00
2018-10-05T01:35:24.553Z,33.37
2018-10-05T01:36:30.090Z,39.50
2018-10-05T01:37:35.626Z,40.87
2018-10-05T01:38:41.210Z,42.43
2018-10-05T01:39:46.705Z,40.10
2018-10-05T01:40:52.306Z,37.37
2018-10-05T01:41:57.803Z,40.63
2018-10-05T01:43:03.357Z,37.40
2018-10-05T01:44:08.957Z,36.73
2018-10-05T01:45:14.397Z,36.37
2018-10-05T01:46:19.942Z,41.57
2018-10-05T01:47:25.518Z,38.60
2018-10-05T01:48:31.091Z,35.10
2018-10-05T01:49:36.661Z,41.50
2018-10-05T01:50:42.165Z,43.07
2018-10-05T01:51:47.597Z,36.27
2018-10-05T01:52:53.219Z,38.23
2018-10-05T01:53:58.658Z,38.23
2018-10-05T01:55:04.246Z,43.20
2018-10-05T01:56:09.845Z,39.17
2018-10-05T01:57:15.348Z,40.43
2018-10-05T01:58:20.847Z,34.97
2018-10-05T01:59:26.293Z,37.97
2018-10-05T02:00:31.784Z,37.17
2018-10-05T02:01:37.471Z,38.03
2018-10-05T02:02:43.049Z,39.60
2018-10-05T02:03:48.461Z,42.10
2018-10-05T02:04:53.917Z,37.67
2018-10-05T02:05:59.745Z,36.00
2018-10-05T02:07:05.351Z,37.90
2018-10-05T02:08:10.811Z,43.30
2018-10-05T02:09:16.307Z,44.00
2018-10-05T02:10:21.827Z,33.70
2018-10-05T02:11:27.433Z,38.10
2018-10-05T02:12:33.105Z,35.30
2018-10-05T02:13:38.529Z,38.20
2018-10-05T02:14:44.061Z,41.27
2018-10-05T02:15:49.644Z,38.80
2018-10-05T02:16:55.159Z,34.23
2018-10-05T02:18:00.720Z,32.77
2018-10-05T02:19:06.388Z,31.90
2018-10-05T02:20:11.882Z,39.00
2018-10-05T02:21:17.527Z,36.10
2018-10-05T02:22:22.988Z,39.00
2018-10-05T02:23:28.458Z,36.33
2018-10-05T02:24:33.987Z,44.57
2018-10-05T02:25:39.418Z,33.27
2018-10-05T02:26:44.858Z,41.87
2018-10-05T02:27:50.300Z,37.37
2018-10-05T02:28:55.857Z,45.60
2018-10-05T02:30:01.318Z,42.37
2018-10-05T02:31:06.938Z,38.00
2018-10-05T02:32:12.506Z,34.60
2018-10-05T02:33:17.950Z,32.77
2018-10-05T02:34:23.493Z,39.23
2018-10-05T02:35:29.061Z,39.40
2018-10-05T02:36:34.589Z,38.83
2018-10-05T02:37:40.027Z,31.90
2018-10-05T02:38:45.480Z,39.03
2018-10-05T02:39:50.964Z,33.10
2018-10-05T02:40:56.469Z,35.03
2018-10-05T02:42:01.958Z,36.47
2018-10-05T02:43:07.511Z,37.03
2018-10-05T02:44:12.966Z,45.63
2018-10-05T02:45:18.472Z,30.17
2018-10-05T02:46:23.886Z,34.80
2018-10-05T02:47:29.402Z,36.27
2018-10-05T02:48:35.094Z,28.63
2018-10-05T02:49:40.591Z,40.83
2018-10-05T02:50:46.124Z,35.27
2018-10-05T02:51:51.628Z,41.00
2018-10-05T02:52:57.090Z,31.60
2018-10-05T02:54:02.624Z,39.10
2018-10-05T02:55:08.210Z,40.07
2018-10-05T02:56:13.774Z,34.20
2018-10-05T02:57:19.301Z,38.27
2018-10-05T02:58:24.926Z,35.10
2018-10-05T02:59:30.442Z,37.20
2018-10-05T03:00:52.638Z,38.13
2018-10-05T03:02:29.085Z,35.83
2018-10-05T03:03:34.523Z,36.57
2018-10-05T03:04:40.001Z,42.70
2018-10-05T03:05:45.558Z,33.70
2018-10-05T03:06:51.070Z,42.53
2018-10-05T03:07:56.567Z,43.03
2018-10-05T03:09:01.971Z,32.73
2018-10-05T03:10:07.510Z,37.73
2018-10-05T03:11:13.425Z,36.07
2018-10-05T03:12:18.981Z,33.53
2018-10-05T03:13:24.584Z,36.17
2018-10-05T03:14:30.141Z,36.27
2018-10-05T03:15:35.816Z,37.83
2018-10-05T03:16:41.233Z,38.40
2018-10-05T03:17:46.756Z,37.73
2018-10-05T03:18:52.451Z,32.13
2018-10-05T03:19:57.988Z,33.77
2018-10-05T03:21:03.792Z,34.63
2018-10-05T03:22:09.305Z,36.80
2018-10-05T03:23:14.777Z,34.80
2018-10-05T03:24:20.261Z,34.00
2018-10-05T03:25:25.752Z,33.63
2018-10-05T03:26:31.274Z,36.13
2018-10-05T03:27:36.845Z,34.40
2018-10-05T03:28:42.285Z,30.53
2018-10-05T03:29:47.766Z,32.47
2018-10-05T03:30:53.312Z,33.57
2018-10-05T03:31:59.699Z,35.43
2018-10-05T03:33:05.337Z,31.50
2018-10-05T03:34:13.527Z,31.47
2018-10-05T03:35:19.345Z,37.47
2018-10-05T03:36:24.884Z,33.80
2018-10-05T03:37:30.661Z,30.07
2018-10-05T03:38:36.163Z,37.73
2018-10-05T03:39:41.711Z,30.80
2018-10-05T03:40:47.154Z,29.80
2018-10-05T03:41:52.770Z,34.23
2018-10-05T03:42:58.339Z,40.23
2018-10-05T03:44:03.944Z,36.10
2018-10-05T03:45:09.683Z,29.87
2018-10-05T03:46:15.181Z,35.90
2018-10-05T03:47:20.788Z,35.50
2018-10-05T03:48:26.272Z,31.83
2018-10-05T03:49:31.679Z,32.40
2018-10-05T03:50:37.206Z,39.23
2018-10-05T03:51:42.664Z,38.83
2018-10-05T03:52:48.222Z,35.77
2018-10-05T03:53:53.685Z,35.50
2018-10-05T03:54:59.189Z,35.00
2018-10-05T03:56:05.009Z,30.60
2018-10-05T03:57:10.495Z,31.63
2018-10-05T03:58:15.986Z,36.27
2018-10-05T03:59:21.553Z,36.67
2018-10-05T04:00:27.013Z,32.43
2018-10-05T04:01:32.553Z,40.93
2018-10-05T04:02:37.954Z,35.47
2018-10-05T04:03:43.557Z,30.77
2018-10-05T04:04:49.051Z,39.30
2018-10-05T04:05:54.562Z,38.43
2018-10-05T04:07:00.069Z,33.10
2018-10-05T04:08:05.610Z,35.60
2018-10-05T04:09:11.666Z,32.63
2018-10-05T04:10:17.097Z,36.73
2018-10-05T04:11:22.626Z,44.30
2018-10-05T04:12:28.096Z,36.03
2018-10-05T04:13:33.560Z,34.63
2018-10-05T04:14:39.201Z,36.77
2018-10-05T04:15:44.649Z,34.40
2018-10-05T04:16:50.172Z,36.30
2018-10-05T04:17:55.643Z,37.97
2018-10-05T04:19:01.183Z,36.40
2018-10-05T04:20:06.656Z,34.03
2018-10-05T04:21:12.153Z,33.67
2018-10-05T04:22:21.232Z,34.60
2018-10-05T04:23:26.749Z,32.00
2018-10-05T04:24:32.168Z,41.10
2018-10-05T04:25:37.714Z,34.50
2018-10-05T04:26:43.168Z,31.37
2018-10-05T04:27:48.688Z,37.20
2018-10-05T04:28:54.326Z,32.60
2018-10-05T04:29:59.861Z,31.13
2018-10-05T04:31:05.453Z,37.63
2018-10-05T04:32:10.902Z,29.90
2018-10-05T04:33:16.418Z,37.47
2018-10-05T04:34:22.009Z,31.27
2018-10-05T04:35:27.584Z,36.00
2018-10-05T04:36:32.990Z,33.67
2018-10-05T04:37:38.423Z,39.90
2018-10-05T04:38:43.938Z,34.47
2018-10-05T04:39:49.498Z,36.60
2018-10-05T04:40:55.022Z,38.17
2018-10-05T04:42:00.505Z,40.10
2018-10-05T04:43:06.297Z,44.30
2018-10-05T04:44:11.829Z,31.43
2018-10-05T04:45:17.322Z,32.77
2018-10-05T04:46:22.794Z,31.97
2018-10-05T04:47:28.266Z,39.70
2018-10-05T04:48:33.908Z,37.57
2018-10-05T04:49:39.517Z,36.53
2018-10-05T04:50:44.937Z,39.53
2018-10-05T04:51:50.636Z,40.90
2018-10-05T04:52:56.079Z,45.10
2018-10-05T04:54:01.503Z,35.50
2018-10-05T04:55:07.262Z,34.77
2018-10-05T04:56:12.699Z,33.33
2018-10-05T04:57:18.253Z,41.33
2018-10-05T04:58:23.740Z,37.37
2018-10-05T04:59:29.206Z,39.27
2018-10-05T05:00:34.668Z,33.13
2018-10-05T05:01:40.097Z,38.50
2018-10-05T05:02:45.562Z,38.33
2018-10-05T05:03:51.092Z,40.80
2018-10-05T05:04:56.609Z,38.80
2018-10-05T05:06:02.170Z,35.17
2018-10-05T05:07:08.691Z,37.37
2018-10-05T05:08:14.200Z,42.03
2018-10-05T05:09:19.696Z,40.10
2018-10-05T05:10:25.232Z,40.90
2018-10-05T05:11:30.665Z,47.63
2018-10-05T05:12:36.168Z,35.00
2018-10-05T05:13:41.619Z,40.77
2018-10-05T05:14:47.111Z,39.03
2018-10-05T05:15:52.757Z,47.97
2018-10-05T05:16:58.636Z,47.10
2018-10-05T05:18:04.113Z,40.20
2018-10-05T05:19:09.535Z,36.83
2018-10-05T05:20:15.168Z,46.20
2018-10-05T05:21:20.737Z,36.67
2018-10-05T05:22:26.256Z,37.73
2018-10-05T05:23:31.778Z,41.10
2018-10-05T05:24:37.273Z,45.10
2018-10-05T05:25:42.788Z,36.40
2018-10-05T05:26:48.266Z,37.37
2018-10-05T05:27:53.829Z,42.80
2018-10-05T05:28:59.260Z,33.23
2018-10-05T05:30:04.854Z,39.47
2018-10-05T05:31:10.514Z,42.67
2018-10-05T05:32:16.009Z,43.63
2018-10-05T05:33:21.521Z,40.13
2018-10-05T05:34:26.944Z,42.10
2018-10-05T05:35:32.377Z,49.00
2018-10-05T05:36:38.026Z,38.47
2018-10-05T05:37:43.522Z,39.57
2018-10-05T05:38:49.053Z,44.93
2018-10-05T05:39:54.554Z,37.73
2018-10-05T05:41:00.124Z,43.40
2018-10-05T05:42:05.669Z,38.70
2018-10-05T05:43:11.193Z,36.63
2018-10-05T05:44:16.729Z,39.90
2018-10-05T05:45:22.239Z,36.60
2018-10-05T05:46:27.688Z,37.07
2018-10-05T05:47:33.141Z,37.40
2018-10-05T05:48:38.742Z,37.47
2018-10-05T05:49:44.262Z,37.47
2018-10-05T05:50:49.788Z,35.97
2018-10-05T05:51:55.213Z,33.80
2018-10-05T05:53:00.637Z,37.50
2018-10-05T05:54:06.211Z,36.17
2018-10-05T05:55:11.662Z,35.00
2018-10-05T05:56:17.170Z,38.90
2018-10-05T05:57:22.733Z,32.80
2018-10-05T05:58:28.161Z,39.17
2018-10-05T05:59:33.718Z,36.50
2018-10-05T06:00:39.289Z,36.17
2018-10-05T06:01:44.769Z,33.43
2018-10-05T06:02:50.237Z,33.63
2018-10-05T06:03:55.811Z,32.40
2018-10-05T06:05:01.338Z,35.10
2018-10-05T06:06:06.850Z,38.67
2018-10-05T06:07:12.308Z,32.80
2018-10-05T06:08:18.275Z,34.83
2018-10-05T06:09:23.815Z,33.47
2018-10-05T06:10:29.357Z,57.57
2018-10-05T06:11:34.896Z,36.60
2018-10-05T06:12:40.346Z,32.40
2018-10-05T06:13:45.807Z,39.97
2018-10-05T06:14:51.437Z,33.07
2018-10-05T06:15:57.831Z,33.60
2018-10-05T06:17:03.457Z,32.60
2018-10-05T06:18:08.924Z,31.73
2018-10-05T06:19:14.596Z,35.80
2018-10-05T06:20:20.159Z,35.30
2018-10-05T06:21:25.629Z,35.07
2018-10-05T06:22:31.241Z,37.40
2018-10-05T06:23:36.679Z,38.40
2018-10-05T06:24:42.226Z,34.40
2018-10-05T06:25:48.032Z,39.80
2018-10-05T06:26:53.541Z,26.90
2018-10-05T06:27:59.029Z,33.17
2018-10-05T06:29:04.563Z,42.70
2018-10-05T06:30:10.046Z,33.70
2018-10-05T06:31:15.839Z,30.77
2018-10-05T06:32:21.300Z,31.57
2018-10-05T06:33:26.786Z,32.47
2018-10-05T06:34:32.260Z,37.60
2018-10-05T06:35:37.693Z,32.40
2018-10-05T06:36:43.154Z,35.30
2018-10-05T06:38:51.809Z,37.40
2018-10-05T06:39:57.588Z,39.60
2018-10-05T06:41:03.085Z,35.23
2018-10-05T06:42:08.595Z,36.00
2018-10-05T06:43:14.023Z,36.10
2018-10-05T06:44:19.689Z,35.53
2018-10-05T06:45:25.305Z,34.87
2018-10-05T06:46:30.731Z,28.67
2018-10-05T06:47:36.173Z,27.23
2018-10-05T06:48:41.637Z,31.80
2018-10-05T06:49:47.166Z,30.47
2018-10-05T06:50:52.688Z,27.60
2018-10-05T06:51:59.008Z,38.77
2018-10-05T06:53:04.628Z,29.93
2018-10-05T06:54:10.232Z,30.03
2018-10-05T06:55:15.715Z,27.93
2018-10-05T06:56:21.347Z,31.20
2018-10-05T06:57:26.773Z,36.57
2018-10-05T06:58:32.471Z,33.00
2018-10-05T06:59:38.102Z,37.07
2018-10-05T07:00:43.623Z,33.73
2018-10-05T07:01:49.253Z,30.30
2018-10-05T07:02:54.693Z,30.73
2018-10-05T07:04:00.369Z,28.73
2018-10-05T07:05:06.078Z,32.70
2018-10-05T07:06:11.624Z,31.13
2018-10-05T07:07:17.151Z,26.93
2018-10-05T07:08:22.798Z,34.40
2018-10-05T07:09:28.253Z,25.57
2018-10-05T07:10:34.171Z,28.33
2018-10-05T07:11:39.723Z,26.70
2018-10-05T07:12:45.481Z,32.47
2018-10-05T07:13:50.963Z,27.43
2018-10-05T07:14:56.448Z,29.07
2018-10-05T07:16:02.030Z,25.90
2018-10-05T07:17:07.700Z,30.47
2018-10-05T07:18:13.006Z,29.03
2018-10-05T07:19:18.494Z,33.80
2018-10-05T07:20:23.952Z,31.30
2018-10-05T07:21:29.581Z,28.07
2018-10-05T07:22:35.096Z,28.00
2018-10-05T07:23:40.496Z,27.00
2018-10-05T07:24:46.017Z,26.13
2018-10-05T07:25:51.589Z,26.10
2018-10-05T07:26:57.064Z,24.53
2018-10-05T07:28:02.491Z,25.97
2018-10-05T07:29:08.066Z,25.10
2018-10-05T07:30:13.601Z,28.73
2018-10-05T07:31:19.143Z,31.20
2018-10-05T07:32:24.855Z,24.50
2018-10-05T07:33:30.325Z,25.83
2018-10-05T07:34:35.796Z,24.27
2018-10-05T07:35:41.268Z,25.30
2018-10-05T07:36:46.978Z,25.60
2018-10-05T07:37:52.625Z,22.77
2018-10-05T07:38:58.109Z,22.73
2018-10-05T07:40:03.542Z,23.07
2018-10-05T07:41:09.235Z,33.13
2018-10-05T07:42:14.704Z,27.57
2018-10-05T07:43:20.686Z,30.37
2018-10-05T07:44:26.139Z,24.33
2018-10-05T07:45:31.581Z,20.80
2018-10-05T07:46:37.072Z,21.10
2018-10-05T07:47:42.540Z,28.40
2018-10-05T07:48:48.063Z,24.00
2018-10-05T07:49:53.573Z,23.63
2018-10-05T07:50:59.059Z,27.73
2018-10-05T07:52:04.757Z,25.87
2018-10-05T07:53:10.244Z,21.47
2018-10-05T07:54:15.822Z,28.80
2018-10-05T07:55:21.440Z,26.43
2018-10-05T07:56:26.960Z,24.77
2018-10-05T07:57:32.471Z,23.10
2018-10-05T07:58:37.887Z,22.87
2018-10-05T07:59:43.453Z,18.50
2018-10-05T08:00:48.900Z,23.53
2018-10-05T08:01:54.404Z,25.97
2018-10-05T08:02:59.997Z,25.97
2018-10-05T08:04:05.621Z,22.67
2018-10-05T08:05:11.089Z,27.70
2018-10-05T08:06:16.636Z,22.63
2018-10-05T08:07:22.091Z,26.77
2018-10-05T08:08:27.593Z,33.00
2018-10-05T08:09:33.045Z,23.40
2018-10-05T08:10:38.584Z,22.60
2018-10-05T08:11:44.155Z,22.33
2018-10-05T08:12:49.601Z,28.63
2018-10-05T08:13:55.125Z,27.47
2018-10-05T08:15:00.547Z,27.03
2018-10-05T08:16:06.046Z,21.33
2018-10-05T08:17:11.538Z,30.00
2018-10-05T08:18:17.078Z,23.73
2018-10-05T08:19:22.582Z,21.53
2018-10-05T08:20:28.076Z,20.60
2018-10-05T08:21:33.654Z,29.20
2018-10-05T08:22:39.074Z,29.90
2018-10-05T08:23:44.552Z,28.10
2018-10-05T08:24:50.010Z,18.70
2018-10-05T08:25:55.561Z,24.03
2018-10-05T08:27:01.216Z,24.17
2018-10-05T08:28:06.690Z,21.33
2018-10-05T08:29:12.146Z,17.53
2018-10-05T08:30:17.652Z,25.77
2018-10-05T08:31:23.274Z,23.73
2018-10-05T08:32:28.716Z,20.37
2018-10-05T08:33:34.210Z,21.90
2018-10-05T08:34:39.769Z,27.70
2018-10-05T08:35:45.207Z,24.33
2018-10-05T08:36:50.716Z,18.73
2018-10-05T08:37:56.288Z,21.30
2018-10-05T08:39:01.913Z,22.90
2018-10-05T08:40:08.849Z,19.43
2018-10-05T08:41:14.284Z,20.50
2018-10-05T08:42:19.836Z,23.20
2018-10-05T08:43:25.301Z,24.17
2018-10-05T08:44:30.843Z,20.67
2018-10-05T08:45:36.311Z,22.50
2018-10-05T08:46:42.009Z,17.60
2018-10-05T08:47:47.528Z,18.43
2018-10-05T08:48:52.984Z,28.10
2018-10-05T08:49:58.557Z,16.20
2018-10-05T08:51:04.158Z,26.20
2018-10-05T08:52:09.803Z,21.17
2018-10-05T08:53:15.161Z,26.33
2018-10-05T08:54:20.641Z,18.80
2018-10-05T08:55:26.154Z,19.00
2018-10-05T08:56:31.560Z,17.77
2018-10-05T08:57:37.034Z,23.00
2018-10-05T08:58:42.444Z,19.90
2018-10-05T08:59:47.961Z,19.13
2018-10-05T09:00:53.592Z,24.63
2018-10-05T09:01:59.145Z,16.90
2018-10-05T09:03:04.671Z,20.00
2018-10-05T09:04:10.092Z,20.87
2018-10-05T09:05:15.750Z,18.30
2018-10-05T09:06:21.277Z,15.87
2018-10-05T09:07:26.858Z,22.33
2018-10-05T09:08:32.294Z,17.17
2018-10-05T09:09:37.735Z,18.23
2018-10-05T09:10:43.214Z,16.20
2018-10-05T09:11:48.634Z,15.10
2018-10-05T09:12:54.164Z,23.53
2018-10-05T09:13:59.700Z,17.70
2018-10-05T09:15:05.212Z,19.57
2018-10-05T09:16:10.983Z,19.30
2018-10-05T09:17:16.527Z,17.10
2018-10-05T09:18:22.052Z,16.43
2018-10-05T09:19:27.597Z,25.23
2018-10-05T09:20:33.080Z,18.93
2018-10-05T09:21:38.631Z,18.00
2018-10-05T09:22:44.094Z,20.97
2018-10-05T09:23:49.684Z,32.03
2018-10-05T09:24:55.573Z,21.77
2018-10-05T09:26:01.181Z,19.67
2018-10-05T09:27:06.680Z,19.13
2018-10-05T09:28:12.301Z,23.20
2018-10-05T09:29:17.796Z,29.07
2018-10-05T09:30:23.294Z,14.77
2018-10-05T09:31:28.721Z,21.40
2018-10-05T09:32:34.124Z,13.90
2018-10-05T09:33:39.638Z,17.70
2018-10-05T09:34:45.090Z,18.70
2018-10-05T09:35:51.474Z,19.17
2018-10-05T09:36:57.035Z,23.50
2018-10-05T09:38:02.506Z,20.77
2018-10-05T09:39:08.892Z,19.60
2018-10-05T09:40:14.466Z,21.93
2018-10-05T09:41:19.948Z,22.90
2018-10-05T09:42:25.520Z,22.60
2018-10-05T09:43:31.020Z,25.03
2018-10-05T09:44:36.509Z,18.03
2018-10-05T09:45:42.028Z,22.40
2018-10-05T09:46:47.784Z,18.00
2018-10-05T09:47:53.260Z,20.57
2018-10-05T09:48:58.789Z,19.03
2018-10-05T09:50:04.288Z,18.70
2018-10-05T09:51:09.863Z,19.20
2018-10-05T09:52:15.374Z,18.33
2018-10-05T09:53:20.956Z,23.57
2018-10-05T09:54:26.432Z,16.50
2018-10-05T09:55:31.852Z,16.57
2018-10-05T09:56:37.393Z,18.10
2018-10-05T09:57:42.845Z,18.33
2018-10-05T09:58:48.340Z,15.43
2018-10-05T09:59:54.086Z,20.03
2018-10-05T10:01:04.792Z,18.00
2018-10-05T10:02:15.680Z,14.90
2018-10-05T10:03:26.322Z,16.40
2018-10-05T10:04:31.836Z,17.67
2018-10-05T10:05:37.433Z,21.53
2018-10-05T10:06:42.865Z,15.83
2018-10-05T10:07:48.373Z,17.20
2018-10-05T10:08:54.123Z,24.10
2018-10-05T10:09:59.675Z,16.60
2018-10-05T10:11:05.232Z,20.13
2018-10-05T10:12:10.684Z,17.97
2018-10-05T10:13:16.110Z,17.80
2018-10-05T10:14:21.781Z,18.83
2018-10-05T10:15:27.312Z,23.80
2018-10-05T10:16:32.816Z,19.97
2018-10-05T10:17:38.449Z,15.33
2018-10-05T10:18:43.978Z,18.43
2018-10-05T10:19:49.519Z,17.73
2018-10-05T10:20:55.152Z,20.53
2018-10-05T10:22:00.607Z,17.27
2018-10-05T10:23:06.146Z,19.53
2018-10-05T10:24:11.855Z,19.50
2018-10-05T10:25:17.918Z,17.27
2018-10-05T10:26:23.388Z,16.33
2018-10-05T10:27:28.982Z,23.50
2018-10-05T10:28:34.552Z,18.07
2018-10-05T10:29:39.938Z,19.60
2018-10-05T10:30:45.337Z,21.50
2018-10-05T10:31:51.192Z,18.10
2018-10-05T10:32:56.673Z,16.83
2018-10-05T10:34:02.173Z,20.90
2018-10-05T10:35:07.637Z,18.50
2018-10-05T10:36:13.059Z,23.33
2018-10-05T10:37:18.512Z,14.90
2018-10-05T10:38:23.981Z,19.53
2018-10-05T10:39:29.533Z,15.07
2018-10-05T10:40:35.043Z,14.83
2018-10-05T10:41:40.501Z,14.90
2018-10-05T10:42:46.048Z,18.03
2018-10-05T10:43:51.566Z,15.37
2018-10-05T10:44:57.207Z,21.53
2018-10-05T10:46:02.796Z,14.90
2018-10-05T10:47:08.338Z,16.20
2018-10-05T10:48:13.863Z,20.63
2018-10-05T10:49:19.285Z,14.13
2018-10-05T10:50:24.857Z,16.43
2018-10-05T10:51:30.285Z,25.57
2018-10-05T10:52:35.669Z,22.00
2018-10-05T10:53:41.168Z,20.03
2018-10-05T10:54:46.716Z,16.23
2018-10-05T10:55:52.225Z,22.30
2018-10-05T10:56:57.770Z,21.43
2018-10-05T10:58:03.207Z,25.13
2018-10-05T10:59:08.613Z,19.53
2018-10-05T11:00:14.573Z,17.47
2018-10-05T11:01:20.109Z,21.70
2018-10-05T11:02:25.556Z,15.70
2018-10-05T11:03:31.016Z,13.93
2018-10-05T11:04:36.610Z,18.17
2018-10-05T11:05:42.066Z,15.10
2018-10-05T11:06:47.662Z,17.50
2018-10-05T11:07:53.142Z,13.63
2018-10-05T11:08:58.593Z,14.87
2018-10-05T11:10:04.182Z,20.13
2018-10-05T11:11:09.762Z,17.30
2018-10-05T11:12:15.278Z,16.93
2018-10-05T11:13:20.863Z,15.97
2018-10-05T11:14:26.690Z,21.80
2018-10-05T11:15:32.161Z,20.90
2018-10-05T11:16:37.854Z,17.93
2018-10-05T11:17:43.262Z,18.93
2018-10-05T11:18:48.675Z,16.50
2018-10-05T11:19:54.324Z,16.07
2018-10-05T11:20:59.776Z,14.13
2018-10-05T11:22:05.282Z,16.53
2018-10-05T11:23:10.911Z,16.20
2018-10-05T11:24:16.356Z,16.00
2018-10-05T11:25:21.992Z,21.87
2018-10-05T11:26:27.449Z,19.43
2018-10-05T11:27:32.908Z,18.00
2018-10-05T11:28:38.381Z,19.93
2018-10-05T11:29:44.154Z,14.50
2018-10-05T11:30:49.546Z,17.37
2018-10-05T11:31:55.001Z,20.60
2018-10-05T11:33:00.470Z,22.33
2018-10-05T11:34:05.934Z,16.67
2018-10-05T11:35:11.386Z,19.53
2018-10-05T11:36:16.813Z,13.03
2018-10-05T11:37:22.288Z,16.33
2018-10-05T11:38:27.826Z,18.47
2018-10-05T11:39:33.313Z,13.10
2018-10-05T11:40:38.779Z,13.90
2018-10-05T11:41:44.232Z,14.33
2018-10-05T11:42:49.790Z,17.30
2018-10-05T11:43:55.338Z,9.67
2018-10-05T11:45:00.913Z,15.90
2018-10-05T11:46:06.531Z,12.10
2018-10-05T11:47:12.063Z,9.53
2018-10-05T11:48:17.538Z,10.77
2018-10-05T11:49:22.985Z,10.27
2018-10-05T11:50:28.429Z,18.93
2018-10-05T11:51:33.911Z,18.20
2018-10-05T11:52:39.374Z,12.67
2018-10-05T11:53:44.838Z,27.30
2018-10-05T11:54:50.392Z,12.43
2018-10-05T11:55:55.820Z,14.60
2018-10-05T11:57:01.283Z,15.27
2018-10-05T11:58:06.709Z,10.37
2018-10-05T11:59:12.189Z,8.90
2018-10-05T12:00:19.150Z,8.03
2018-10-05T12:01:24.923Z,16.57
2018-10-05T12:02:30.556Z,8.80
2018-10-05T12:03:36.091Z,10.00
2018-10-05T12:04:41.622Z,16.47
2018-10-05T12:05:47.100Z,10.53
2018-10-05T12:06:52.760Z,16.20
2018-10-05T12:07:58.359Z,12.13
2018-10-05T12:09:04.859Z,9.10
2018-10-05T12:10:10.457Z,8.90
2018-10-05T12:11:15.894Z,10.10
2018-10-05T12:12:21.517Z,12.07
2018-10-05T12:13:27.012Z,8.63
2018-10-05T12:14:32.533Z,12.53
2018-10-05T12:15:37.979Z,11.17
2018-10-05T12:16:43.478Z,8.67
2018-10-05T12:17:48.921Z,12.53
2018-10-05T12:18:54.530Z,14.80
2018-10-05T12:20:00.049Z,10.10
2018-10-05T12:21:05.549Z,12.53
2018-10-05T12:22:11.054Z,11.93
2018-10-05T12:23:16.495Z,13.77
2018-10-05T12:24:22.082Z,15.10
2018-10-05T12:25:27.517Z,12.10
2018-10-05T12:26:33.105Z,13.53
2018-10-05T12:27:38.498Z,12.53
2018-10-05T12:28:43.949Z,8.20
2018-10-05T12:29:49.592Z,13.13
2018-10-05T12:30:55.184Z,9.70
2018-10-05T12:32:00.686Z,8.83
2018-10-05T12:33:06.418Z,11.60
2018-10-05T12:34:12.032Z,13.57
2018-10-05T12:35:17.486Z,10.43
2018-10-05T12:36:22.973Z,9.90
2018-10-05T12:37:28.468Z,11.83
2018-10-05T12:38:33.938Z,15.53
2018-10-05T12:39:39.473Z,8.00
2018-10-05T12:40:44.952Z,14.37
2018-10-05T12:41:50.442Z,10.13
2018-10-05T12:42:55.883Z,11.47
2018-10-05T12:44:01.322Z,13.90
2018-10-05T12:45:06.957Z,10.37
2018-10-05T12:46:12.547Z,8.10
2018-10-05T12:47:18.011Z,14.97
2018-10-05T12:48:23.502Z,10.87
2018-10-05T12:49:28.948Z,14.50
2018-10-05T12:50:34.463Z,10.10
2018-10-05T12:51:39.963Z,8.90
2018-10-05T12:52:45.541Z,8.80
2018-10-05T12:53:51.177Z,21.03
2018-10-05T12:54:56.688Z,14.03
2018-10-05T12:56:02.216Z,11.27
2018-10-05T12:57:07.730Z,10.80
2018-10-05T12:58:13.246Z,9.17
2018-10-05T12:59:18.696Z,12.70
2018-10-05T13:00:24.269Z,12.40
2018-10-05T13:01:29.746Z,11.67
2018-10-05T13:02:35.409Z,12.73
2018-10-05T13:03:40.848Z,15.53
2018-10-05T13:04:46.423Z,12.97
2018-10-05T13:05:51.880Z,5.70
2018-10-05T13:06:57.450Z,9.80
2018-10-05T13:08:03.020Z,9.13
2018-10-05T13:09:09.350Z,10.00
2018-10-05T13:10:14.754Z,8.93
2018-10-05T13:11:20.445Z,10.27
2018-10-05T13:12:25.930Z,20.33
2018-10-05T13:13:31.431Z,12.77
2018-10-05T13:14:36.929Z,9.20
2018-10-05T13:15:42.386Z,10.57
2018-10-05T13:16:48.146Z,13.57
2018-10-05T13:17:53.690Z,11.63
2018-10-05T13:18:59.183Z,9.60
2018-10-05T13:20:04.799Z,8.17
2018-10-05T13:21:10.589Z,8.17
2018-10-05T13:22:16.092Z,12.73
2018-10-05T13:23:21.550Z,14.17
2018-10-05T13:24:27.127Z,7.50
2018-10-05T13:25:32.601Z,8.63
2018-10-05T13:26:38.126Z,7.77
2018-10-05T13:27:43.565Z,12.40
2018-10-05T13:28:49.105Z,14.73
2018-10-05T13:29:54.572Z,14.43
2018-10-05T13:31:00.045Z,9.33
2018-10-05T13:32:05.493Z,11.47
2018-10-05T13:33:10.963Z,9.93
2018-10-05T13:34:16.511Z,11.33
2018-10-05T13:35:22.092Z,12.17
2018-10-05T13:36:27.647Z,9.57
2018-10-05T13:37:33.113Z,11.50
2018-10-05T13:38:38.575Z,8.00
2018-10-05T13:39:44.029Z,10.47
2018-10-05T13:40:49.476Z,11.50
2018-10-05T13:41:54.984Z,11.23
2018-10-05T13:43:00.492Z,12.10
2018-10-05T13:44:05.996Z,11.90
2018-10-05T13:45:11.497Z,9.00
2018-10-05T13:46:17.069Z,12.20
2018-10-05T13:47:22.764Z,13.00
2018-10-05T13:48:28.237Z,12.20
2018-10-05T13:49:33.826Z,11.33
2018-10-05T13:50:39.241Z,11.27
2018-10-05T13:51:44.732Z,10.10
2018-10-05T13:52:50.298Z,14.60
2018-10-05T13:53:55.747Z,10.73
2018-10-05T13:55:01.219Z,7.80
2018-10-05T13:56:06.661Z,9.80
2018-10-05T13:57:12.174Z,15.73
2018-10-05T13:58:17.600Z,13.97
2018-10-05T13:59:23.096Z,14.60
2018-10-05T14:00:28.589Z,14.67
2018-10-05T14:01:34.226Z,11.37
2018-10-05T14:02:39.951Z,8.20
2018-10-05T14:03:45.541Z,12.93
2018-10-05T14:04:51.163Z,15.30
2018-10-05T14:05:56.853Z,9.97
2018-10-05T14:07:02.521Z,8.70
2018-10-05T14:08:08.377Z,12.77
2018-10-05T14:09:13.804Z,10.93